sensor_id;sensor_type;location;lat;lon;timestamp;P1;durP1;ratioP1;P2;durP2;ratioP2
10050;SDS011;5065;46.942;7.432;2023-06-22T00:01:13;16.17;;;8.52;;
10050;SDS011;5065;46.942;7.432;2023-06-22T00:03:40;17.65;;;8.70;;
10050;SDS011;5065;46.942;7.432;2023-06-22T00:06:07;15.07;;;7.97;;
10050;SDS011;5065;46.942;7.432;2023-06-22T00:08:34;15.95;;;8.80;;
10050;SDS011;5065;46.942;7.432;2023-06-22T00:11:02;16.05;;;9.18;;
10050;SDS011;5065;46.942;7.432;2023-06-22T00:13:30;15.85;;;8.95;;
10050;SDS011;5065;46.942;7.432;2023-06-22T00:15:57;15.48;;;8.55;;
10050;SDS011;5065;46.942;7.432;2023-06-22T00:18:24;15.63;;;8.80;;
10050;SDS011;5065;46.942;7.432;2023-06-22T00:20:53;18.83;;;9.13;;
10050;SDS011;5065;46.942;7.432;2023-06-22T00:23:23;17.48;;;9.18;;
10050;SDS011;5065;46.942;7.432;2023-06-22T00:25:50;18.02;;;9.20;;
10050;SDS011;5065;46.942;7.432;2023-06-22T00:28:19;18.63;;;9.73;;
10050;SDS011;5065;46.942;7.432;2023-06-22T00:30:47;17.00;;;9.27;;
10050;SDS011;5065;46.942;7.432;2023-06-22T00:33:15;19.10;;;8.90;;
10050;SDS011;5065;46.942;7.432;2023-06-22T00:35:42;20.17;;;8.70;;
10050;SDS011;5065;46.942;7.432;2023-06-22T00:38:09;17.75;;;8.80;;
10050;SDS011;5065;46.942;7.432;2023-06-22T00:40:37;18.67;;;8.97;;
10050;SDS011;5065;46.942;7.432;2023-06-22T00:43:04;15.25;;;8.65;;
10050;SDS011;5065;46.942;7.432;2023-06-22T00:45:33;15.57;;;8.63;;
10050;SDS011;5065;46.942;7.432;2023-06-22T00:48:00;14.50;;;8.60;;
10050;SDS011;5065;46.942;7.432;2023-06-22T00:50:29;18.20;;;8.45;;
10050;SDS011;5065;46.942;7.432;2023-06-22T00:53:01;18.30;;;9.23;;
10050;SDS011;5065;46.942;7.432;2023-06-22T00:55:33;19.55;;;8.57;;
10050;SDS011;5065;46.942;7.432;2023-06-22T00:58:02;15.60;;;8.98;;
10050;SDS011;5065;46.942;7.432;2023-06-22T01:00:34;20.03;;;9.17;;
10050;SDS011;5065;46.942;7.432;2023-06-22T01:03:01;18.85;;;8.68;;
10050;SDS011;5065;46.942;7.432;2023-06-22T01:05:29;17.13;;;8.25;;
10050;SDS011;5065;46.942;7.432;2023-06-22T01:08:04;15.60;;;8.10;;
10050;SDS011;5065;46.942;7.432;2023-06-22T01:10:40;20.35;;;8.25;;
10050;SDS011;5065;46.942;7.432;2023-06-22T01:13:13;22.55;;;8.68;;
10050;SDS011;5065;46.942;7.432;2023-06-22T01:15:49;17.77;;;8.13;;
10050;SDS011;5065;46.942;7.432;2023-06-22T01:18:21;22.33;;;8.57;;
10050;SDS011;5065;46.942;7.432;2023-06-22T01:20:50;16.25;;;8.55;;
10050;SDS011;5065;46.942;7.432;2023-06-22T01:23:22;17.95;;;8.55;;
10050;SDS011;5065;46.942;7.432;2023-06-22T01:25:57;19.58;;;8.50;;
10050;SDS011;5065;46.942;7.432;2023-06-22T01:28:43;17.80;;;8.27;;
10050;SDS011;5065;46.942;7.432;2023-06-22T01:31:13;21.60;;;8.57;;
10050;SDS011;5065;46.942;7.432;2023-06-22T01:33:43;17.23;;;7.70;;
10050;SDS011;5065;46.942;7.432;2023-06-22T01:36:13;20.33;;;9.30;;
10050;SDS011;5065;46.942;7.432;2023-06-22T01:38:42;16.48;;;7.68;;
10050;SDS011;5065;46.942;7.432;2023-06-22T01:41:11;16.02;;;8.30;;
10050;SDS011;5065;46.942;7.432;2023-06-22T01:43:39;19.93;;;8.33;;
10050;SDS011;5065;46.942;7.432;2023-06-22T02:00:53;13.02;;;6.85;;
10050;SDS011;5065;46.942;7.432;2023-06-22T02:03:28;22.13;;;6.97;;
10050;SDS011;5065;46.942;7.432;2023-06-22T02:06:01;16.67;;;6.30;;
10050;SDS011;5065;46.942;7.432;2023-06-22T02:08:32;13.70;;;6.97;;
10050;SDS011;5065;46.942;7.432;2023-06-22T02:11:04;15.90;;;7.00;;
10050;SDS011;5065;46.942;7.432;2023-06-22T02:13:32;20.77;;;7.65;;
10050;SDS011;5065;46.942;7.432;2023-06-22T02:16:00;17.58;;;6.60;;
10050;SDS011;5065;46.942;7.432;2023-06-22T02:18:29;19.65;;;7.10;;
10050;SDS011;5065;46.942;7.432;2023-06-22T02:20:56;15.55;;;6.63;;
10050;SDS011;5065;46.942;7.432;2023-06-22T02:23:24;15.38;;;6.32;;
10050;SDS011;5065;46.942;7.432;2023-06-22T02:25:51;15.30;;;5.97;;
10050;SDS011;5065;46.942;7.432;2023-06-22T02:28:18;18.70;;;6.90;;
10050;SDS011;5065;46.942;7.432;2023-06-22T02:30:45;15.65;;;6.80;;
10050;SDS011;5065;46.942;7.432;2023-06-22T02:33:12;16.48;;;7.32;;
10050;SDS011;5065;46.942;7.432;2023-06-22T02:35:41;14.82;;;7.45;;
10050;SDS011;5065;46.942;7.432;2023-06-22T02:38:12;16.65;;;6.88;;
10050;SDS011;5065;46.942;7.432;2023-06-22T02:40:40;14.48;;;7.25;;
10050;SDS011;5065;46.942;7.432;2023-06-22T02:43:07;15.95;;;7.68;;
10050;SDS011;5065;46.942;7.432;2023-06-22T02:45:34;17.80;;;8.00;;
10050;SDS011;5065;46.942;7.432;2023-06-22T02:48:01;13.20;;;6.45;;
10050;SDS011;5065;46.942;7.432;2023-06-22T02:50:28;12.43;;;6.47;;
10050;SDS011;5065;46.942;7.432;2023-06-22T02:52:57;17.77;;;7.07;;
10050;SDS011;5065;46.942;7.432;2023-06-22T02:55:24;14.88;;;7.03;;
10050;SDS011;5065;46.942;7.432;2023-06-22T02:57:51;20.30;;;6.50;;
10050;SDS011;5065;46.942;7.432;2023-06-22T03:00:19;16.48;;;6.78;;
10050;SDS011;5065;46.942;7.432;2023-06-22T03:02:47;14.35;;;6.20;;
10050;SDS011;5065;46.942;7.432;2023-06-22T03:05:15;13.65;;;6.88;;
10050;SDS011;5065;46.942;7.432;2023-06-22T03:07:43;12.07;;;7.15;;
10050;SDS011;5065;46.942;7.432;2023-06-22T03:10:13;16.38;;;6.30;;
10050;SDS011;5065;46.942;7.432;2023-06-22T03:12:41;11.95;;;6.13;;
10050;SDS011;5065;46.942;7.432;2023-06-22T03:15:09;13.77;;;6.07;;
10050;SDS011;5065;46.942;7.432;2023-06-22T03:17:38;17.88;;;6.55;;
10050;SDS011;5065;46.942;7.432;2023-06-22T03:20:07;20.10;;;7.22;;
10050;SDS011;5065;46.942;7.432;2023-06-22T03:22:36;15.75;;;6.35;;
10050;SDS011;5065;46.942;7.432;2023-06-22T03:25:04;11.43;;;6.20;;
10050;SDS011;5065;46.942;7.432;2023-06-22T03:27:37;11.63;;;6.72;;
10050;SDS011;5065;46.942;7.432;2023-06-22T03:30:04;20.55;;;6.95;;
10050;SDS011;5065;46.942;7.432;2023-06-22T03:32:33;13.07;;;6.93;;
10050;SDS011;5065;46.942;7.432;2023-06-22T03:35:00;12.57;;;6.68;;
10050;SDS011;5065;46.942;7.432;2023-06-22T03:37:28;18.83;;;7.28;;
10050;SDS011;5065;46.942;7.432;2023-06-22T03:39:55;19.73;;;6.60;;
10050;SDS011;5065;46.942;7.432;2023-06-22T03:42:22;14.73;;;6.28;;
10050;SDS011;5065;46.942;7.432;2023-06-22T03:44:50;24.88;;;7.10;;
10050;SDS011;5065;46.942;7.432;2023-06-22T03:47:17;19.27;;;7.13;;
10050;SDS011;5065;46.942;7.432;2023-06-22T03:49:45;12.48;;;7.07;;
10050;SDS011;5065;46.942;7.432;2023-06-22T03:52:12;19.27;;;7.32;;
10050;SDS011;5065;46.942;7.432;2023-06-22T03:54:39;13.60;;;6.90;;
10050;SDS011;5065;46.942;7.432;2023-06-22T03:57:06;15.00;;;6.40;;
10050;SDS011;5065;46.942;7.432;2023-06-22T03:59:33;15.20;;;7.63;;
10050;SDS011;5065;46.942;7.432;2023-06-22T04:02:03;11.52;;;6.65;;
10050;SDS011;5065;46.942;7.432;2023-06-22T04:04:30;14.35;;;6.65;;
10050;SDS011;5065;46.942;7.432;2023-06-22T04:06:58;14.45;;;6.95;;
10050;SDS011;5065;46.942;7.432;2023-06-22T04:09:25;16.65;;;7.43;;
10050;SDS011;5065;46.942;7.432;2023-06-22T04:11:53;16.70;;;7.10;;
10050;SDS011;5065;46.942;7.432;2023-06-22T04:14:20;19.30;;;7.32;;
10050;SDS011;5065;46.942;7.432;2023-06-22T04:16:47;17.02;;;7.07;;
10050;SDS011;5065;46.942;7.432;2023-06-22T04:19:15;19.02;;;6.70;;
10050;SDS011;5065;46.942;7.432;2023-06-22T04:21:43;17.38;;;6.97;;
10050;SDS011;5065;46.942;7.432;2023-06-22T04:24:13;17.13;;;6.07;;
10050;SDS011;5065;46.942;7.432;2023-06-22T04:26:40;16.33;;;7.32;;
10050;SDS011;5065;46.942;7.432;2023-06-22T04:29:10;15.65;;;6.95;;
10050;SDS011;5065;46.942;7.432;2023-06-22T04:31:38;20.80;;;7.95;;
10050;SDS011;5065;46.942;7.432;2023-06-22T04:34:06;15.57;;;7.20;;
10050;SDS011;5065;46.942;7.432;2023-06-22T04:36:36;19.35;;;7.10;;
10050;SDS011;5065;46.942;7.432;2023-06-22T04:39:05;14.82;;;6.95;;
10050;SDS011;5065;46.942;7.432;2023-06-22T04:41:34;12.68;;;7.97;;
10050;SDS011;5065;46.942;7.432;2023-06-22T04:44:11;17.70;;;6.30;;
10050;SDS011;5065;46.942;7.432;2023-06-22T04:46:39;14.80;;;7.70;;
10050;SDS011;5065;46.942;7.432;2023-06-22T04:49:06;15.02;;;7.07;;
10050;SDS011;5065;46.942;7.432;2023-06-22T04:51:39;27.77;;;12.65;;
10050;SDS011;5065;46.942;7.432;2023-06-22T04:54:07;14.20;;;7.22;;
10050;SDS011;5065;46.942;7.432;2023-06-22T04:56:36;12.75;;;6.65;;
10050;SDS011;5065;46.942;7.432;2023-06-22T04:59:06;17.70;;;7.65;;
10050;SDS011;5065;46.942;7.432;2023-06-22T05:01:38;14.95;;;7.40;;
10050;SDS011;5065;46.942;7.432;2023-06-22T05:04:05;26.50;;;8.48;;
10050;SDS011;5065;46.942;7.432;2023-06-22T05:06:32;14.77;;;7.30;;
10050;SDS011;5065;46.942;7.432;2023-06-22T05:09:01;15.25;;;7.38;;
10050;SDS011;5065;46.942;7.432;2023-06-22T05:11:29;19.38;;;7.88;;
10050;SDS011;5065;46.942;7.432;2023-06-22T05:13:56;14.70;;;7.38;;
10050;SDS011;5065;46.942;7.432;2023-06-22T05:16:23;16.10;;;8.30;;
10050;SDS011;5065;46.942;7.432;2023-06-22T05:18:51;18.60;;;8.32;;
10050;SDS011;5065;46.942;7.432;2023-06-22T05:21:21;17.23;;;8.10;;
10050;SDS011;5065;46.942;7.432;2023-06-22T05:23:50;16.42;;;8.23;;
10050;SDS011;5065;46.942;7.432;2023-06-22T05:26:19;17.55;;;8.50;;
10050;SDS011;5065;46.942;7.432;2023-06-22T05:28:47;16.52;;;8.60;;
10050;SDS011;5065;46.942;7.432;2023-06-22T05:31:14;14.68;;;8.90;;
10050;SDS011;5065;46.942;7.432;2023-06-22T14:50:02;15.98;;;5.57;;
10050;SDS011;5065;46.942;7.432;2023-06-22T14:52:30;9.07;;;5.05;;
10050;SDS011;5065;46.942;7.432;2023-06-22T14:54:57;11.93;;;5.05;;
10050;SDS011;5065;46.942;7.432;2023-06-22T14:57:24;11.40;;;4.40;;
10050;SDS011;5065;46.942;7.432;2023-06-22T14:59:53;9.93;;;4.32;;
10050;SDS011;5065;46.942;7.432;2023-06-22T15:02:20;10.32;;;3.60;;
10050;SDS011;5065;46.942;7.432;2023-06-22T15:04:48;22.48;;;3.83;;
10050;SDS011;5065;46.942;7.432;2023-06-22T15:07:15;11.80;;;4.63;;
10050;SDS011;5065;46.942;7.432;2023-06-22T15:09:42;11.93;;;4.78;;
10050;SDS011;5065;46.942;7.432;2023-06-22T15:12:10;21.63;;;4.60;;
10050;SDS011;5065;46.942;7.432;2023-06-22T15:14:38;14.45;;;4.93;;
10050;SDS011;5065;46.942;7.432;2023-06-22T15:17:07;17.48;;;5.22;;
10050;SDS011;5065;46.942;7.432;2023-06-22T15:19:35;15.85;;;4.78;;
10050;SDS011;5065;46.942;7.432;2023-06-22T15:22:03;12.90;;;4.82;;
10050;SDS011;5065;46.942;7.432;2023-06-22T15:24:31;12.73;;;4.65;;
10050;SDS011;5065;46.942;7.432;2023-06-22T15:26:58;13.90;;;5.35;;
10050;SDS011;5065;46.942;7.432;2023-06-22T15:29:25;9.30;;;4.82;;
10050;SDS011;5065;46.942;7.432;2023-06-22T15:31:55;14.48;;;5.88;;
10050;SDS011;5065;46.942;7.432;2023-06-22T15:34:23;13.35;;;4.28;;
10050;SDS011;5065;46.942;7.432;2023-06-22T15:36:50;15.27;;;4.78;;
10050;SDS011;5065;46.942;7.432;2023-06-22T15:39:18;14.48;;;5.38;;
10050;SDS011;5065;46.942;7.432;2023-06-22T15:41:45;13.55;;;4.35;;
10050;SDS011;5065;46.942;7.432;2023-06-22T15:44:12;10.07;;;4.38;;
10050;SDS011;5065;46.942;7.432;2023-06-22T15:46:40;12.73;;;3.95;;
10050;SDS011;5065;46.942;7.432;2023-06-22T15:49:07;10.02;;;3.47;;
10050;SDS011;5065;46.942;7.432;2023-06-22T15:51:35;10.18;;;4.22;;
10050;SDS011;5065;46.942;7.432;2023-06-22T15:54:02;5.97;;;3.50;;
10050;SDS011;5065;46.942;7.432;2023-06-22T15:56:29;7.05;;;4.70;;
10050;SDS011;5065;46.942;7.432;2023-06-22T15:58:57;7.82;;;3.47;;
10050;SDS011;5065;46.942;7.432;2023-06-22T16:01:24;12.60;;;3.80;;
10050;SDS011;5065;46.942;7.432;2023-06-22T16:03:51;8.05;;;3.50;;
10050;SDS011;5065;46.942;7.432;2023-06-22T16:06:18;7.60;;;3.65;;
10050;SDS011;5065;46.942;7.432;2023-06-22T16:08:46;7.47;;;3.20;;
10050;SDS011;5065;46.942;7.432;2023-06-22T16:11:14;8.20;;;5.70;;
10050;SDS011;5065;46.942;7.432;2023-06-22T16:13:41;8.00;;;4.65;;
10050;SDS011;5065;46.942;7.432;2023-06-22T16:16:08;12.63;;;4.63;;
10050;SDS011;5065;46.942;7.432;2023-06-22T16:18:35;12.50;;;5.07;;
10050;SDS011;5065;46.942;7.432;2023-06-22T16:21:02;7.65;;;4.07;;
10050;SDS011;5065;46.942;7.432;2023-06-22T16:23:30;10.60;;;3.85;;
10050;SDS011;5065;46.942;7.432;2023-06-22T16:25:58;13.82;;;3.75;;
10050;SDS011;5065;46.942;7.432;2023-06-22T16:28:25;18.52;;;2.10;;
10050;SDS011;5065;46.942;7.432;2023-06-22T16:30:53;9.70;;;2.67;;
10050;SDS011;5065;46.942;7.432;2023-06-22T16:33:20;9.82;;;2.15;;
10050;SDS011;5065;46.942;7.432;2023-06-22T16:35:47;8.07;;;1.77;;
10050;SDS011;5065;46.942;7.432;2023-06-22T16:38:14;14.45;;;2.20;;
10050;SDS011;5065;46.942;7.432;2023-06-22T16:40:42;19.17;;;2.17;;
10050;SDS011;5065;46.942;7.432;2023-06-22T16:43:10;5.53;;;1.33;;
10050;SDS011;5065;46.942;7.432;2023-06-22T16:45:37;9.25;;;1.80;;
10050;SDS011;5065;46.942;7.432;2023-06-22T16:48:05;4.10;;;1.42;;
10050;SDS011;5065;46.942;7.432;2023-06-22T16:50:32;6.63;;;1.55;;
10050;SDS011;5065;46.942;7.432;2023-06-22T16:52:59;4.35;;;1.77;;
10050;SDS011;5065;46.942;7.432;2023-06-22T16:55:26;3.50;;;1.88;;
10050;SDS011;5065;46.942;7.432;2023-06-22T16:57:55;4.72;;;1.75;;
10050;SDS011;5065;46.942;7.432;2023-06-22T17:00:24;4.80;;;2.05;;
10050;SDS011;5065;46.942;7.432;2023-06-22T17:02:52;3.80;;;1.70;;
10050;SDS011;5065;46.942;7.432;2023-06-22T17:05:21;4.10;;;1.50;;
10050;SDS011;5065;46.942;7.432;2023-06-22T17:07:51;2.30;;;1.60;;
10050;SDS011;5065;46.942;7.432;2023-06-22T17:10:20;1.35;;;1.10;;
10050;SDS011;5065;46.942;7.432;2023-06-22T17:12:47;4.45;;;1.60;;
10050;SDS011;5065;46.942;7.432;2023-06-22T17:15:15;3.60;;;1.50;;
10050;SDS011;5065;46.942;7.432;2023-06-22T17:17:45;2.40;;;1.58;;
10050;SDS011;5065;46.942;7.432;2023-06-22T17:20:12;5.63;;;1.80;;
10050;SDS011;5065;46.942;7.432;2023-06-22T17:22:40;2.17;;;1.60;;
10050;SDS011;5065;46.942;7.432;2023-06-22T17:25:09;2.88;;;1.90;;
10050;SDS011;5065;46.942;7.432;2023-06-22T17:27:36;5.28;;;1.50;;
10050;SDS011;5065;46.942;7.432;2023-06-22T17:30:05;5.78;;;1.90;;
10050;SDS011;5065;46.942;7.432;2023-06-22T17:32:33;3.17;;;1.90;;
10050;SDS011;5065;46.942;7.432;2023-06-22T17:35:02;11.18;;;7.72;;
10050;SDS011;5065;46.942;7.432;2023-06-22T17:37:34;7.28;;;4.10;;
10050;SDS011;5065;46.942;7.432;2023-06-22T17:40:14;12.10;;;3.85;;
10050;SDS011;5065;46.942;7.432;2023-06-22T17:42:42;5.45;;;2.85;;
10050;SDS011;5065;46.942;7.432;2023-06-22T17:45:19;5.88;;;3.17;;
10050;SDS011;5065;46.942;7.432;2023-06-22T17:47:47;9.63;;;3.80;;
10050;SDS011;5065;46.942;7.432;2023-06-22T17:50:16;5.95;;;2.42;;
10050;SDS011;5065;46.942;7.432;2023-06-22T17:52:50;2.95;;;1.55;;
10050;SDS011;5065;46.942;7.432;2023-06-22T17:55:19;2.65;;;1.45;;
10050;SDS011;5065;46.942;7.432;2023-06-22T17:57:48;2.05;;;1.30;;
10050;SDS011;5065;46.942;7.432;2023-06-22T18:00:18;2.45;;;1.50;;
10050;SDS011;5065;46.942;7.432;2023-06-22T18:02:46;4.32;;;1.90;;
10050;SDS011;5065;46.942;7.432;2023-06-22T18:05:19;2.97;;;1.80;;
10050;SDS011;5065;46.942;7.432;2023-06-22T18:07:56;4.05;;;1.73;;
10050;SDS011;5065;46.942;7.432;2023-06-22T18:10:24;12.80;;;4.28;;
10050;SDS011;5065;46.942;7.432;2023-06-22T18:12:54;7.40;;;3.60;;
10050;SDS011;5065;46.942;7.432;2023-06-22T18:15:22;6.85;;;2.75;;
10050;SDS011;5065;46.942;7.432;2023-06-22T18:17:49;4.45;;;3.90;;
10050;SDS011;5065;46.942;7.432;2023-06-22T18:20:19;10.95;;;3.00;;
10050;SDS011;5065;46.942;7.432;2023-06-22T18:22:46;5.95;;;2.78;;
10050;SDS011;5065;46.942;7.432;2023-06-22T18:25:14;10.73;;;3.03;;
10050;SDS011;5065;46.942;7.432;2023-06-22T18:27:43;4.80;;;2.67;;
10050;SDS011;5065;46.942;7.432;2023-06-22T18:30:13;5.75;;;2.65;;
10050;SDS011;5065;46.942;7.432;2023-06-22T18:32:42;4.88;;;2.28;;
10050;SDS011;5065;46.942;7.432;2023-06-22T18:35:09;7.55;;;1.83;;
10050;SDS011;5065;46.942;7.432;2023-06-22T18:37:39;6.20;;;2.38;;
10050;SDS011;5065;46.942;7.432;2023-06-22T18:40:08;5.55;;;1.98;;
10050;SDS011;5065;46.942;7.432;2023-06-22T18:42:38;5.35;;;2.05;;
10050;SDS011;5065;46.942;7.432;2023-06-22T18:45:21;4.53;;;2.00;;
10050;SDS011;5065;46.942;7.432;2023-06-22T18:47:54;5.30;;;1.90;;
10050;SDS011;5065;46.942;7.432;2023-06-22T18:50:34;6.18;;;1.83;;
10050;SDS011;5065;46.942;7.432;2023-06-22T18:53:04;6.82;;;4.00;;
10050;SDS011;5065;46.942;7.432;2023-06-22T18:55:31;4.60;;;2.00;;
10050;SDS011;5065;46.942;7.432;2023-06-22T18:58:14;5.03;;;2.55;;
10050;SDS011;5065;46.942;7.432;2023-06-22T19:00:44;10.43;;;6.70;;
10050;SDS011;5065;46.942;7.432;2023-06-22T19:03:30;7.70;;;3.17;;
10050;SDS011;5065;46.942;7.432;2023-06-22T19:05:58;3.35;;;2.50;;
10050;SDS011;5065;46.942;7.432;2023-06-22T19:08:27;4.88;;;2.55;;
10050;SDS011;5065;46.942;7.432;2023-06-22T19:11:14;6.50;;;2.08;;
10050;SDS011;5065;46.942;7.432;2023-06-22T19:13:47;5.97;;;2.47;;
10050;SDS011;5065;46.942;7.432;2023-06-22T19:16:14;8.63;;;3.17;;
10050;SDS011;5065;46.942;7.432;2023-06-22T19:18:42;8.20;;;3.20;;
10050;SDS011;5065;46.942;7.432;2023-06-22T19:21:20;6.07;;;2.92;;
10050;SDS011;5065;46.942;7.432;2023-06-22T19:23:50;8.85;;;2.63;;
10050;SDS011;5065;46.942;7.432;2023-06-22T19:26:18;7.80;;;2.58;;
10050;SDS011;5065;46.942;7.432;2023-06-22T19:28:47;5.82;;;2.28;;
10050;SDS011;5065;46.942;7.432;2023-06-22T19:31:15;3.95;;;2.58;;
10050;SDS011;5065;46.942;7.432;2023-06-22T19:33:44;3.65;;;2.20;;
10050;SDS011;5065;46.942;7.432;2023-06-22T19:36:11;4.13;;;2.25;;
10050;SDS011;5065;46.942;7.432;2023-06-22T19:38:39;5.22;;;2.38;;
10050;SDS011;5065;46.942;7.432;2023-06-22T19:41:07;6.00;;;2.40;;
10050;SDS011;5065;46.942;7.432;2023-06-22T19:43:35;6.07;;;2.25;;
10050;SDS011;5065;46.942;7.432;2023-06-22T19:46:03;5.05;;;2.92;;
10050;SDS011;5065;46.942;7.432;2023-06-22T19:48:31;4.28;;;2.53;;
10050;SDS011;5065;46.942;7.432;2023-06-22T19:51:01;5.13;;;2.70;;
10050;SDS011;5065;46.942;7.432;2023-06-22T19:53:29;10.23;;;4.90;;
10050;SDS011;5065;46.942;7.432;2023-06-22T19:55:57;5.93;;;2.97;;
10050;SDS011;5065;46.942;7.432;2023-06-22T19:58:27;4.78;;;3.15;;
10050;SDS011;5065;46.942;7.432;2023-06-22T20:00:58;4.57;;;2.90;;
10050;SDS011;5065;46.942;7.432;2023-06-22T20:03:26;4.72;;;2.97;;
10050;SDS011;5065;46.942;7.432;2023-06-22T20:06:06;3.72;;;2.65;;
10050;SDS011;5065;46.942;7.432;2023-06-22T20:08:41;3.65;;;2.92;;
10050;SDS011;5065;46.942;7.432;2023-06-22T20:11:10;3.42;;;3.03;;
10050;SDS011;5065;46.942;7.432;2023-06-22T20:13:46;4.78;;;2.85;;
10050;SDS011;5065;46.942;7.432;2023-06-22T20:16:14;6.28;;;3.00;;
10050;SDS011;5065;46.942;7.432;2023-06-22T20:18:42;4.57;;;2.90;;
10050;SDS011;5065;46.942;7.432;2023-06-22T20:21:10;5.25;;;2.90;;
10050;SDS011;5065;46.942;7.432;2023-06-22T20:23:40;6.15;;;3.03;;
10050;SDS011;5065;46.942;7.432;2023-06-22T20:26:08;5.35;;;3.22;;
10050;SDS011;5065;46.942;7.432;2023-06-22T20:28:35;5.43;;;3.22;;
10050;SDS011;5065;46.942;7.432;2023-06-22T20:31:04;4.45;;;3.40;;
10050;SDS011;5065;46.942;7.432;2023-06-22T20:33:33;5.45;;;3.47;;
10050;SDS011;5065;46.942;7.432;2023-06-22T20:36:00;6.40;;;4.93;;
10050;SDS011;5065;46.942;7.432;2023-06-22T20:38:28;6.55;;;5.07;;
10050;SDS011;5065;46.942;7.432;2023-06-22T20:40:57;7.10;;;5.30;;
10050;SDS011;5065;46.942;7.432;2023-06-22T20:43:25;12.57;;;5.18;;
10050;SDS011;5065;46.942;7.432;2023-06-22T20:45:52;13.43;;;4.88;;
10050;SDS011;5065;46.942;7.432;2023-06-22T20:48:21;5.15;;;4.65;;
10050;SDS011;5065;46.942;7.432;2023-06-22T20:50:48;9.77;;;4.75;;
10050;SDS011;5065;46.942;7.432;2023-06-22T20:53:16;6.60;;;4.15;;
10050;SDS011;5065;46.942;7.432;2023-06-22T20:55:43;5.47;;;4.10;;
10050;SDS011;5065;46.942;7.432;2023-06-22T20:58:10;7.00;;;5.03;;
10050;SDS011;5065;46.942;7.432;2023-06-22T21:00:37;5.03;;;3.63;;
10050;SDS011;5065;46.942;7.432;2023-06-22T21:03:06;5.78;;;3.95;;
10050;SDS011;5065;46.942;7.432;2023-06-22T21:05:37;7.10;;;3.97;;
10050;SDS011;5065;46.942;7.432;2023-06-22T21:08:05;8.23;;;4.45;;
10050;SDS011;5065;46.942;7.432;2023-06-22T21:10:33;6.05;;;3.88;;
10050;SDS011;5065;46.942;7.432;2023-06-22T21:13:00;9.07;;;3.83;;
10050;SDS011;5065;46.942;7.432;2023-06-22T21:15:27;4.20;;;3.38;;
10050;SDS011;5065;46.942;7.432;2023-06-22T21:17:55;4.55;;;3.50;;
10050;SDS011;5065;46.942;7.432;2023-06-22T21:20:22;5.65;;;3.28;;
10050;SDS011;5065;46.942;7.432;2023-06-22T21:22:51;6.35;;;2.97;;
10050;SDS011;5065;46.942;7.432;2023-06-22T21:25:18;5.40;;;3.50;;
10050;SDS011;5065;46.942;7.432;2023-06-22T21:27:45;5.53;;;3.17;;
10050;SDS011;5065;46.942;7.432;2023-06-22T21:30:12;6.85;;;3.15;;
10050;SDS011;5065;46.942;7.432;2023-06-22T21:32:40;4.25;;;3.17;;
10050;SDS011;5065;46.942;7.432;2023-06-22T21:35:08;4.03;;;2.55;;
10050;SDS011;5065;46.942;7.432;2023-06-22T21:37:36;4.03;;;2.92;;
10050;SDS011;5065;46.942;7.432;2023-06-22T21:40:05;5.93;;;2.75;;
10050;SDS011;5065;46.942;7.432;2023-06-22T21:42:33;3.97;;;2.70;;
10050;SDS011;5065;46.942;7.432;2023-06-22T21:45:00;5.30;;;3.55;;
10050;SDS011;5065;46.942;7.432;2023-06-22T21:47:27;7.13;;;3.40;;
10050;SDS011;5065;46.942;7.432;2023-06-22T21:49:54;5.27;;;3.50;;
10050;SDS011;5065;46.942;7.432;2023-06-22T21:52:23;4.68;;;3.30;;
10050;SDS011;5065;46.942;7.432;2023-06-22T21:54:54;8.02;;;2.95;;
10050;SDS011;5065;46.942;7.432;2023-06-22T21:57:23;7.07;;;3.67;;
10050;SDS011;5065;46.942;7.432;2023-06-22T21:59:51;4.75;;;3.30;;
10050;SDS011;5065;46.942;7.432;2023-06-22T22:02:19;5.38;;;3.30;;
10050;SDS011;5065;46.942;7.432;2023-06-22T22:04:46;8.93;;;3.60;;
10050;SDS011;5065;46.942;7.432;2023-06-22T22:07:13;7.30;;;3.60;;
10050;SDS011;5065;46.942;7.432;2023-06-22T22:09:40;4.57;;;2.92;;
10050;SDS011;5065;46.942;7.432;2023-06-22T22:12:08;4.97;;;3.30;;
10050;SDS011;5065;46.942;7.432;2023-06-22T22:14:37;8.15;;;3.08;;
10050;SDS011;5065;46.942;7.432;2023-06-22T22:17:06;4.78;;;3.10;;
10050;SDS011;5065;46.942;7.432;2023-06-22T22:19:33;4.65;;;2.90;;
10050;SDS011;5065;46.942;7.432;2023-06-22T22:22:00;3.72;;;2.88;;
10050;SDS011;5065;46.942;7.432;2023-06-22T22:24:28;4.88;;;3.08;;
10050;SDS011;5065;46.942;7.432;2023-06-22T22:26:55;8.13;;;3.28;;
10050;SDS011;5065;46.942;7.432;2023-06-22T22:29:23;5.50;;;3.13;;
10050;SDS011;5065;46.942;7.432;2023-06-22T22:31:54;4.53;;;3.38;;
10050;SDS011;5065;46.942;7.432;2023-06-22T22:34:21;5.10;;;2.72;;
10050;SDS011;5065;46.942;7.432;2023-06-22T22:36:48;7.38;;;2.88;;
10050;SDS011;5065;46.942;7.432;2023-06-22T22:39:28;5.03;;;2.88;;
10050;SDS011;5065;46.942;7.432;2023-06-22T22:41:57;4.85;;;2.80;;
10050;SDS011;5065;46.942;7.432;2023-06-22T22:44:24;5.13;;;2.90;;
10050;SDS011;5065;46.942;7.432;2023-06-22T22:46:51;4.63;;;2.90;;
10050;SDS011;5065;46.942;7.432;2023-06-22T22:49:20;8.83;;;2.77;;
10050;SDS011;5065;46.942;7.432;2023-06-22T22:51:49;6.85;;;3.03;;
10050;SDS011;5065;46.942;7.432;2023-06-22T22:54:16;5.40;;;3.00;;
10050;SDS011;5065;46.942;7.432;2023-06-22T22:56:43;5.15;;;3.08;;
10050;SDS011;5065;46.942;7.432;2023-06-22T22:59:10;4.60;;;2.83;;
10050;SDS011;5065;46.942;7.432;2023-06-22T23:01:38;5.25;;;2.83;;
10050;SDS011;5065;46.942;7.432;2023-06-22T23:04:07;4.10;;;2.80;;
10050;SDS011;5065;46.942;7.432;2023-06-22T23:06:34;4.63;;;2.95;;
10050;SDS011;5065;46.942;7.432;2023-06-22T23:09:02;4.05;;;3.00;;
10050;SDS011;5065;46.942;7.432;2023-06-22T23:11:30;5.95;;;3.50;;
10050;SDS011;5065;46.942;7.432;2023-06-22T23:13:57;4.90;;;2.85;;
10050;SDS011;5065;46.942;7.432;2023-06-22T23:16:25;4.03;;;3.05;;
10050;SDS011;5065;46.942;7.432;2023-06-22T23:18:53;5.30;;;2.60;;
10050;SDS011;5065;46.942;7.432;2023-06-22T23:21:21;3.77;;;2.93;;
10050;SDS011;5065;46.942;7.432;2023-06-22T23:23:49;3.03;;;2.70;;
10050;SDS011;5065;46.942;7.432;2023-06-22T23:26:16;5.70;;;3.10;;
10050;SDS011;5065;46.942;7.432;2023-06-22T23:28:43;3.13;;;2.78;;
10050;SDS011;5065;46.942;7.432;2023-06-22T23:31:10;4.38;;;2.83;;
10050;SDS011;5065;46.942;7.432;2023-06-22T23:33:37;3.33;;;2.95;;
10050;SDS011;5065;46.942;7.432;2023-06-22T23:36:05;6.28;;;2.88;;
10050;SDS011;5065;46.942;7.432;2023-06-22T23:38:34;4.97;;;2.90;;
10050;SDS011;5065;46.942;7.432;2023-06-22T23:41:03;4.95;;;3.10;;
10050;SDS011;5065;46.942;7.432;2023-06-22T23:43:32;6.78;;;2.95;;
10050;SDS011;5065;46.942;7.432;2023-06-22T23:46:00;3.88;;;2.90;;
10050;SDS011;5065;46.942;7.432;2023-06-22T23:48:27;3.33;;;2.72;;
10050;SDS011;5065;46.942;7.432;2023-06-22T23:50:55;7.60;;;3.10;;
10050;SDS011;5065;46.942;7.432;2023-06-22T23:53:24;5.60;;;3.13;;
10050;SDS011;5065;46.942;7.432;2023-06-22T23:55:53;3.45;;;2.65;;
10050;SDS011;5065;46.942;7.432;2023-06-22T23:58:22;4.95;;;3.00;;
